Time;durP1;ratioP1;P1;durP2;ratioP2;P2;SDS_P1;SDS_P2;PMS_P1;PMS_P2;Temp;Humidity;BMP_temperature;BMP_pressure;BME280_temperature;BME280_humidity;BME280_pressure;Samples;Min_cycle;Max_cycle;Signal;HPM_P1;HPM_P2
2022/05/24 00:02:33;;;;;;;9.23;8.63;;;17.30;99.90;;;;;;5036842;28;20563;-69
2022/05/24 00:05:26;;;;;;;9.50;8.70;;;17.30;99.90;;;;;;5033741;28;20493;-69
2022/05/24 00:08:23;;;;;;;8.70;8.10;;;17.30;99.90;;;;;;5033038;28;20467;-69
2022/05/24 00:11:16;;;;;;;8.93;8.30;;;17.30;99.90;;;;;;5035960;28;20660;-69
2022/05/24 00:14:07;;;;;;;9.20;8.50;;;17.30;99.90;;;;;;5033182;28;20478;-69
2022/05/24 00:16:58;;;;;;;8.67;8.13;;;17.20;99.90;;;;;;5039190;28;20986;-69
2022/05/24 00:19:46;;;;;;;10.13;9.33;;;17.20;99.90;;;;;;5037606;28;20468;-70
2022/05/24 00:22:34;;;;;;;9.53;8.63;;;17.20;99.90;;;;;;5035440;28;20544;-69
2022/05/24 00:25:23;;;;;;;9.70;8.90;;;17.20;99.90;;;;;;5038099;28;20610;-69
2022/05/24 00:28:12;;;;;;;8.97;8.37;;;17.30;99.90;;;;;;5037838;28;20471;-68
2022/05/24 00:31:08;;;;;;;10.07;9.27;;;17.20;99.90;;;;;;5036377;28;20517;-69
2022/05/24 00:34:00;;;;;;;9.80;9.10;;;17.20;99.90;;;;;;5036580;28;20501;-69
2022/05/24 00:36:50;;;;;;;10.37;9.57;;;17.20;99.90;;;;;;5031885;28;20594;-69
2022/05/24 00:39:46;;;;;;;9.83;9.07;;;17.10;99.90;;;;;;5038152;28;20553;-69
2022/05/24 00:42:38;;;;;;;10.03;9.23;;;17.10;99.90;;;;;;5034528;28;20801;-70
2022/05/24 00:45:31;;;;;;;10.10;9.40;;;17.10;99.90;;;;;;5034030;28;20598;-69
2022/05/24 00:48:27;;;;;;;10.87;9.97;;;17.10;99.90;;;;;;5032572;28;20849;-68
2022/05/24 00:51:20;;;;;;;10.30;9.40;;;17.10;99.90;;;;;;5035712;28;21097;-69
2022/05/24 00:54:10;;;;;;;10.10;9.30;;;17.00;99.90;;;;;;5035167;28;20487;-70
2022/05/24 00:57:05;;;;;;;10.67;9.87;;;17.00;99.90;;;;;;5038194;28;20450;-70
2022/05/24 00:59:58;;;;;;;9.73;9.00;;;16.90;99.90;;;;;;5035847;28;20459;-71
2022/05/24 01:02:49;;;;;;;11.50;10.60;;;16.80;99.90;;;;;;5037029;28;20479;-70
2022/05/24 01:05:40;;;;;;;11.67;10.87;;;16.80;99.90;;;;;;5037116;28;20547;-70
2022/05/24 01:08:28;;;;;;;10.93;10.13;;;16.70;99.90;;;;;;5035897;28;20486;-70
2022/05/24 01:11:17;;;;;;;10.53;9.73;;;16.80;99.90;;;;;;5039720;28;20444;-70
2022/05/24 01:14:07;;;;;;;10.93;10.13;;;16.70;99.90;;;;;;5036909;28;20531;-70
2022/05/24 01:16:57;;;;;;;11.57;10.50;;;16.80;99.90;;;;;;5037140;28;20546;-69
2022/05/24 01:19:51;;;;;;;11.43;10.53;;;16.70;99.90;;;;;;5036249;28;20570;-69
2022/05/24 01:23:05;;;;;;;11.37;10.50;;;16.80;99.90;;;;;;5037776;28;20597;-69
2022/05/24 01:25:59;;;;;;;10.87;10.13;;;16.70;99.90;;;;;;5033966;28;20896;-69
2022/05/24 01:28:54;;;;;;;11.70;10.80;;;16.70;99.90;;;;;;5036641;28;20486;-69
2022/05/24 01:37:55;;;;;;;11.63;10.63;;;16.70;99.90;;;;;;5035426;28;20480;-69
2022/05/24 01:40:47;;;;;;;12.40;11.50;;;16.70;99.90;;;;;;5036975;28;20454;-70
2022/05/24 01:43:38;;;;;;;12.87;11.87;;;16.70;99.90;;;;;;5035794;28;20601;-69
2022/05/24 01:46:33;;;;;;;14.50;13.20;;;16.80;99.90;;;;;;5037771;28;20585;-69
2022/05/24 01:49:26;;;;;;;15.13;13.80;;;16.70;99.90;;;;;;5036309;28;20993;-69
2022/05/24 01:52:21;;;;;;;14.13;13.03;;;16.70;99.90;;;;;;5035685;28;20470;-69
2022/05/24 01:55:17;;;;;;;16.07;14.67;;;16.80;99.90;;;;;;5035530;28;20467;-69
2022/05/24 01:58:09;;;;;;;14.07;12.70;;;16.70;99.90;;;;;;5037074;28;20524;-69
2022/05/24 02:01:02;;;;;;;11.43;10.43;;;16.70;99.90;;;;;;5039802;28;20538;-69
2022/05/24 02:04:00;;;;;;;7.83;7.20;;;16.70;99.90;;;;;;5034489;28;20483;-69
2022/05/24 02:06:59;;;;;;;6.20;5.70;;;16.60;99.90;;;;;;5036275;28;20978;-69
2022/05/24 02:09:49;;;;;;;4.87;4.57;;;16.60;99.90;;;;;;5035937;28;20948;-69
2022/05/24 02:12:41;;;;;;;5.00;4.60;;;16.60;99.90;;;;;;5035983;28;21098;-69
2022/05/24 02:15:34;;;;;;;4.40;4.10;;;16.50;99.90;;;;;;5035556;28;20512;-69
2022/05/24 02:18:33;;;;;;;4.93;4.53;;;16.40;99.90;;;;;;5033407;28;21215;-70
2022/05/24 02:21:23;;;;;;;4.87;4.47;;;16.30;99.90;;;;;;5038659;28;20534;-69
2022/05/24 02:24:19;;;;;;;5.67;5.20;;;16.20;99.90;;;;;;5036221;28;20507;-73
2022/05/24 02:27:11;;;;;;;6.17;5.67;;;16.10;99.90;;;;;;5036033;28;20472;-69
2022/05/24 02:30:01;;;;;;;6.47;5.90;;;16.00;99.90;;;;;;5033240;28;20478;-69
2022/05/24 02:32:49;;;;;;;6.87;6.27;;;16.10;99.90;;;;;;5035052;28;21075;-69
2022/05/24 02:35:38;;;;;;;7.10;6.50;;;16.10;99.90;;;;;;5034091;28;20561;-70
2022/05/24 02:38:31;;;;;;;7.30;6.60;;;16.00;99.90;;;;;;5050463;28;20561;-69
2022/05/24 02:41:33;;;;;;;8.90;6.87;;;16.00;99.90;;;;;;5057638;28;20490;-70
2022/05/24 02:44:23;;;;;;;7.80;7.20;;;16.00;99.90;;;;;;5052141;28;20541;-69
2022/05/24 02:47:11;;;;;;;8.57;7.87;;;16.00;99.90;;;;;;5043203;28;20451;-69
2022/05/24 02:50:05;;;;;;;9.27;8.43;;;16.00;99.90;;;;;;5038138;28;20465;-70
2022/05/24 02:52:56;;;;;;;9.00;8.40;;;15.90;99.90;;;;;;5037168;28;20629;-69
2022/05/24 02:55:47;;;;;;;9.40;8.70;;;15.90;99.90;;;;;;5038107;28;20544;-69
2022/05/24 02:58:36;;;;;;;9.33;8.60;;;16.00;99.90;;;;;;5039132;28;20548;-69
2022/05/24 03:01:27;;;;;;;9.93;9.13;;;15.90;99.90;;;;;;5035930;28;20514;-70
2022/05/24 03:04:15;;;;;;;11.00;10.10;;;15.90;99.90;;;;;;5035106;28;20536;-69
2022/05/24 03:10:13;;;;;;;12.00;11.00;;;15.90;99.90;;;;;;5037368;28;20577;-69
2022/05/24 03:16:14;;;;;;;14.10;12.70;;;15.80;99.90;;;;;;5037722;28;20521;-69
2022/05/24 03:19:03;;;;;;;13.47;12.37;;;15.80;99.90;;;;;;5034268;28;20479;-70
2022/05/24 03:21:53;;;;;;;13.73;12.53;;;15.80;99.90;;;;;;5033124;28;20981;-69
2022/05/24 03:24:43;;;;;;;13.60;12.30;;;15.80;99.90;;;;;;5031979;28;20470;-70
2022/05/24 03:27:34;;;;;;;13.57;12.37;;;15.80;99.90;;;;;;5038570;28;20986;-69
2022/05/24 03:30:28;;;;;;;14.33;12.83;;;15.70;99.90;;;;;;5038522;28;20455;-69
2022/05/24 03:33:18;;;;;;;14.10;12.90;;;15.60;99.90;;;;;;5034186;28;20964;-69
2022/05/24 03:36:10;;;;;;;13.70;12.53;;;15.60;99.90;;;;;;5033963;28;20584;-69
2022/05/24 03:39:00;;;;;;;13.23;12.00;;;15.60;99.90;;;;;;5035413;28;21103;-69
2022/05/24 03:41:50;;;;;;;12.83;11.63;;;15.50;99.90;;;;;;5037208;28;20454;-69
2022/05/24 03:44:38;;;;;;;14.13;12.67;;;15.50;99.90;;;;;;5039503;28;20452;-69
2022/05/24 03:47:32;;;;;;;12.10;11.07;;;15.50;99.90;;;;;;5031717;28;20537;-69
2022/05/24 03:50:22;;;;;;;13.63;12.43;;;15.50;99.90;;;;;;5036956;28;20495;-70
2022/05/24 03:53:15;;;;;;;12.10;11.20;;;15.50;99.90;;;;;;5036200;28;21049;-69
2022/05/24 03:56:04;;;;;;;12.53;11.43;;;15.50;99.90;;;;;;5037476;28;20463;-69
2022/05/24 03:58:52;;;;;;;13.13;11.87;;;15.60;99.90;;;;;;5038003;28;20498;-69
2022/05/24 04:01:44;;;;;;;11.87;10.77;;;15.50;99.90;;;;;;5038137;28;20471;-69
2022/05/24 04:04:34;;;;;;;12.10;11.07;;;15.50;99.90;;;;;;5036562;28;20464;-69
2022/05/24 04:07:22;;;;;;;12.00;11.00;;;15.50;99.90;;;;;;5034328;28;20985;-69
2022/05/24 04:10:19;;;;;;;11.83;10.77;;;15.50;99.90;;;;;;5040757;28;20490;-69
2022/05/24 04:13:07;;;;;;;12.10;11.00;;;15.50;99.90;;;;;;5038021;28;20604;-69
2022/05/24 04:15:55;;;;;;;11.80;10.80;;;15.50;99.90;;;;;;5040057;28;20991;-69
2022/05/24 04:18:44;;;;;;;10.50;9.60;;;15.50;99.90;;;;;;5037302;28;20536;-70
2022/05/24 04:21:36;;;;;;;10.07;9.27;;;15.50;99.90;;;;;;5042470;28;20503;-70
2022/05/24 04:24:24;;;;;;;9.30;8.50;;;15.50;99.90;;;;;;5041388;28;20556;-69
2022/05/24 04:27:12;;;;;;;9.90;8.90;;;15.50;99.90;;;;;;5041383;28;20581;-69
2022/05/24 04:30:06;;;;;;;9.20;8.40;;;15.50;99.90;;;;;;5041650;28;20440;-69
2022/05/24 04:32:59;;;;;;;8.90;8.10;;;15.50;99.90;;;;;;5038929;28;20562;-69
2022/05/24 04:35:55;;;;;;;7.40;6.80;;;15.50;99.90;;;;;;5041835;28;21028;-69
2022/05/24 04:38:47;;;;;;;6.73;6.10;;;15.50;99.90;;;;;;5038000;28;20482;-69
2022/05/24 04:44:41;;;;;;;10.03;7.10;;;15.50;99.90;;;;;;5036392;28;20981;-70
2022/05/24 04:47:31;;;;;;;6.87;6.27;;;15.40;99.90;;;;;;5046439;28;20450;-70
2022/05/24 04:50:22;;;;;;;7.17;6.57;;;15.50;99.90;;;;;;5044988;28;20577;-69
2022/05/24 04:53:21;;;;;;;6.60;6.00;;;15.50;99.90;;;;;;5042929;28;20482;-70
2022/05/24 04:56:13;;;;;;;6.23;5.63;;;15.50;99.90;;;;;;5042191;28;20455;-70
2022/05/24 04:59:06;;;;;;;6.13;5.57;;;15.40;99.90;;;;;;5034540;28;20475;-69
2022/05/24 05:01:56;;;;;;;6.20;5.60;;;15.40;99.90;;;;;;5034166;28;20482;-69
2022/05/24 05:04:44;;;;;;;6.53;5.87;;;15.40;99.90;;;;;;5039662;28;20463;-69
2022/05/24 05:07:33;;;;;;;6.03;5.53;;;15.30;99.90;;;;;;5026518;28;20986;-68
2022/05/24 05:10:29;;;;;;;6.03;5.43;;;15.40;99.90;;;;;;5038770;28;20452;-68
2022/05/24 05:13:19;;;;;;;5.90;5.40;;;15.40;99.90;;;;;;5037374;28;20581;-68
2022/05/24 05:16:09;;;;;;;5.30;4.83;;;15.40;99.90;;;;;;5036106;28;20448;-68
2022/05/24 05:18:57;;;;;;;5.73;5.23;;;15.40;99.90;;;;;;5036187;28;20561;-69
2022/05/24 05:21:55;;;;;;;4.83;4.43;;;15.30;99.90;;;;;;5034728;28;20947;-69
2022/05/24 05:24:45;;;;;;;5.60;5.13;;;15.30;99.90;;;;;;5028086;28;20541;-69
2022/05/24 05:27:35;;;;;;;4.80;4.47;;;15.30;99.90;;;;;;5030423;28;20467;-69
2022/05/24 05:33:34;;;;;;;5.67;4.60;;;15.30;99.90;;;;;;5033469;28;20527;-69
2022/05/24 05:36:24;;;;;;;5.00;4.50;;;15.30;99.90;;;;;;5041337;28;20523;-69
2022/05/24 05:39:14;;;;;;;4.97;4.50;;;15.30;99.90;;;;;;5039949;28;20508;-69
2022/05/24 05:42:07;;;;;;;5.00;4.50;;;15.40;99.90;;;;;;5038304;28;20572;-69
2022/05/24 05:44:57;;;;;;;4.77;4.43;;;15.30;99.90;;;;;;5040259;28;20617;-69
2022/05/24 05:47:46;;;;;;;5.10;4.70;;;15.40;99.90;;;;;;5036938;28;20574;-69
2022/05/24 05:50:34;;;;;;;6.00;5.10;;;15.50;99.90;;;;;;5040614;28;20451;-69
2022/05/24 05:53:23;;;;;;;5.30;4.80;;;15.50;99.90;;;;;;5036497;28;20506;-69
2022/05/24 05:56:17;;;;;;;5.37;4.97;;;15.50;99.90;;;;;;5039721;28;20501;-69
2022/05/24 05:59:08;;;;;;;4.73;4.33;;;15.50;99.90;;;;;;5041151;28;21244;-69
2022/05/24 06:02:00;;;;;;;5.97;5.33;;;15.60;99.90;;;;;;5037815;28;20549;-69
2022/05/24 06:04:51;;;;;;;5.50;5.00;;;15.60;99.90;;;;;;5039730;28;21530;-69
2022/05/24 06:07:40;;;;;;;4.93;4.30;;;15.50;99.90;;;;;;5039831;28;20485;-69
2022/05/24 06:10:29;;;;;;;5.17;4.77;;;15.50;99.90;;;;;;5041834;28;20444;-69
2022/05/24 06:13:18;;;;;;;5.97;5.47;;;15.50;99.90;;;;;;5036632;28;20558;-69
2022/05/24 06:16:10;;;;;;;5.77;4.90;;;15.50;99.90;;;;;;5039865;28;20932;-69
2022/05/24 06:19:02;;;;;;;5.30;4.90;;;15.50;99.90;;;;;;5038569;28;20483;-69
2022/05/24 06:21:51;;;;;;;5.30;4.80;;;15.60;99.90;;;;;;5039228;28;21135;-69
2022/05/24 06:24:41;;;;;;;5.60;5.10;;;15.60;99.90;;;;;;5038176;28;21035;-69
2022/05/24 06:27:30;;;;;;;5.27;4.87;;;15.60;99.90;;;;;;5037118;28;20635;-69
2022/05/24 06:30:20;;;;;;;6.93;5.60;;;15.70;99.90;;;;;;5035394;28;20532;-69
2022/05/24 06:33:11;;;;;;;5.90;5.23;;;15.70;99.90;;;;;;5034004;28;21001;-69
2022/05/24 06:36:05;;;;;;;5.77;5.37;;;15.70;99.90;;;;;;5037198;28;20549;-69
2022/05/24 06:38:54;;;;;;;5.80;5.30;;;15.70;99.90;;;;;;5038067;28;21009;-69
2022/05/24 06:41:45;;;;;;;5.63;5.23;;;15.70;99.90;;;;;;5038984;28;20443;-69
2022/05/24 06:44:37;;;;;;;6.03;5.53;;;15.70;99.90;;;;;;5040726;28;20472;-69
2022/05/24 06:47:25;;;;;;;6.90;6.20;;;15.80;99.90;;;;;;5038359;28;20470;-69
2022/05/24 06:50:17;;;;;;;6.63;6.00;;;15.70;99.90;;;;;;5040906;28;20431;-69
2022/05/24 06:53:10;;;;;;;7.73;7.13;;;15.80;99.90;;;;;;5038886;28;21128;-69
2022/05/24 06:55:59;;;;;;;7.60;7.00;;;15.70;99.90;;;;;;5038664;28;20538;-69
2022/05/24 06:58:49;;;;;;;8.97;8.17;;;15.80;99.90;;;;;;5037080;28;20957;-69
2022/05/24 07:04:43;;;;;;;9.57;8.73;;;15.70;99.90;;;;;;5039895;28;20468;-69
2022/05/24 07:07:35;;;;;;;10.07;9.17;;;15.80;99.90;;;;;;5039193;28;20537;-69
2022/05/24 07:10:23;;;;;;;9.67;8.87;;;15.80;99.90;;;;;;5037294;28;20532;-69
2022/05/24 07:13:17;;;;;;;9.77;8.97;;;15.80;99.90;;;;;;5038423;28;20532;-69
2022/05/24 07:16:08;;;;;;;9.07;8.27;;;15.80;99.90;;;;;;5039443;28;20461;-69
2022/05/24 07:18:58;;;;;;;10.10;9.20;;;15.80;99.90;;;;;;5040308;28;20471;-69
2022/05/24 07:21:46;;;;;;;10.03;9.20;;;15.90;99.90;;;;;;5037554;28;20500;-69
2022/05/24 07:24:36;;;;;;;10.10;9.20;;;15.90;99.90;;;;;;5037392;28;20493;-69
2022/05/24 07:27:25;;;;;;;11.07;8.77;;;16.00;99.90;;;;;;5037903;28;20452;-69
2022/05/24 07:30:17;;;;;;;11.83;10.83;;;16.00;99.90;;;;;;5057042;28;20434;-70
2022/05/24 07:33:07;;;;;;;10.23;9.43;;;16.10;99.90;;;;;;5059641;28;20474;-70
2022/05/24 07:36:01;;;;;;;11.23;10.20;;;16.10;99.90;;;;;;5061287;28;20475;-70
2022/05/24 07:38:52;;;;;;;10.37;9.53;;;16.20;99.90;;;;;;5051144;28;20515;-69
2022/05/24 07:48:06;;;;;;;11.70;10.60;;;16.40;99.90;;;;;;5043066;28;20482;-70
2022/05/24 07:50:54;;;;;;;10.90;10.00;;;16.40;99.90;;;;;;5042176;28;20848;-69
2022/05/24 07:53:49;;;;;;;10.23;9.33;;;16.40;99.90;;;;;;5043328;28;20512;-69
2022/05/24 07:56:44;;;;;;;12.63;11.63;;;16.50;99.90;;;;;;5043290;28;20542;-69
2022/05/24 07:59:35;;;;;;;11.13;10.00;;;16.60;99.90;;;;;;5042992;28;20481;-69
2022/05/24 08:02:24;;;;;;;12.47;11.37;;;16.60;99.90;;;;;;5041961;28;20475;-69
2022/05/24 08:05:15;;;;;;;11.93;10.73;;;16.60;99.90;;;;;;5040129;28;20467;-69
2022/05/24 08:08:06;;;;;;;12.20;11.00;;;16.70;99.90;;;;;;5041982;28;20478;-69
2022/05/24 08:11:02;;;;;;;13.70;12.40;;;16.80;99.90;;;;;;5043843;28;20447;-69
2022/05/24 08:13:53;;;;;;;13.20;12.00;;;16.90;99.90;;;;;;5041087;28;20482;-69
2022/05/24 08:16:46;;;;;;;11.37;10.10;;;17.00;99.90;;;;;;5041302;28;20976;-69
2022/05/24 08:19:35;;;;;;;10.00;9.20;;;17.00;99.90;;;;;;5041980;28;20481;-69
2022/05/24 08:22:29;;;;;;;10.27;9.37;;;17.10;99.90;;;;;;5041869;28;21213;-70
2022/05/24 08:25:18;;;;;;;9.70;8.87;;;17.20;99.90;;;;;;5042382;28;20514;-70
2022/05/24 08:28:07;;;;;;;10.40;9.50;;;17.30;99.90;;;;;;5042611;28;20501;-69
2022/05/24 08:30:58;;;;;;;10.70;9.70;;;17.40;99.90;;;;;;5043039;28;21081;-69
2022/05/24 08:33:48;;;;;;;10.50;9.60;;;17.40;99.90;;;;;;5041050;28;20482;-70
2022/05/24 08:36:39;;;;;;;9.93;8.23;;;17.40;99.90;;;;;;5040802;28;20809;-69
2022/05/24 08:39:32;;;;;;;8.90;8.20;;;17.40;99.90;;;;;;5041006;28;20503;-69
2022/05/24 08:42:34;;;;;;;9.97;8.97;;;17.50;99.90;;;;;;5038924;28;21110;-70
2022/05/24 08:48:41;;;;;;;10.83;9.83;;;17.50;99.90;;;;;;5040826;28;20512;-69
2022/05/24 08:51:35;;;;;;;11.03;8.60;;;17.50;99.90;;;;;;5041725;28;20450;-69
2022/05/24 08:54:41;;;;;;;9.90;8.90;;;17.50;99.90;;;;;;5039662;28;20478;-70
2022/05/24 08:57:42;;;;;;;9.50;8.70;;;17.50;99.90;;;;;;5038366;28;21219;-69
2022/05/24 09:00:40;;;;;;;10.20;9.30;;;17.50;99.90;;;;;;5039206;28;20993;-69
2022/05/24 09:03:31;;;;;;;10.43;9.43;;;17.50;99.90;;;;;;5039332;28;20575;-69
2022/05/24 09:06:34;;;;;;;7.90;7.20;;;17.50;99.90;;;;;;5039473;28;20496;-70
2022/05/24 09:09:37;;;;;;;9.17;8.30;;;17.50;99.90;;;;;;5038228;28;20497;-69
2022/05/24 09:12:37;;;;;;;11.80;10.73;;;17.60;99.90;;;;;;5039044;28;20619;-69
2022/05/24 09:15:37;;;;;;;9.80;8.90;;;17.60;99.90;;;;;;5038774;28;20448;-69
2022/05/24 09:18:31;;;;;;;10.27;9.30;;;17.70;99.90;;;;;;5035591;28;20627;-69
2022/05/24 09:21:22;;;;;;;9.97;9.03;;;17.70;99.90;;;;;;5039981;28;20593;-69
2022/05/24 09:24:20;;;;;;;9.17;8.27;;;17.80;99.90;;;;;;5037823;28;20493;-69
2022/05/24 09:27:13;;;;;;;10.13;9.13;;;17.90;99.90;;;;;;5038233;28;20999;-70
2022/05/24 09:30:05;;;;;;;10.03;9.03;;;18.00;99.90;;;;;;5039890;28;20444;-70
2022/05/24 09:33:14;;;;;;;10.27;9.37;;;18.10;99.90;;;;;;5035133;28;20558;-69
2022/05/24 09:36:04;;;;;;;9.17;8.30;;;18.10;99.90;;;;;;5038169;28;20540;-70
2022/05/24 09:38:52;;;;;;;9.80;8.90;;;18.20;99.90;;;;;;5039661;28;20569;-70
2022/05/24 09:41:55;;;;;;;11.60;10.27;;;18.30;99.90;;;;;;5039960;28;20634;-70
2022/05/24 09:44:47;;;;;;;9.50;8.70;;;18.30;99.90;;;;;;5039031;28;20491;-70
2022/05/24 09:47:55;;;;;;;10.80;9.63;;;18.20;99.90;;;;;;5038396;28;20471;-70
2022/05/24 09:50:52;;;;;;;11.23;10.23;;;18.10;99.90;;;;;;5038175;28;20451;-70
2022/05/24 09:53:51;;;;;;;11.20;10.10;;;18.00;99.90;;;;;;5039970;28;20540;-70
2022/05/24 09:56:39;;;;;;;10.63;9.63;;;18.10;99.90;;;;;;5037107;28;20457;-70
2022/05/24 09:59:28;;;;;;;11.53;10.50;;;18.10;99.90;;;;;;5038150;28;20575;-70
2022/05/24 10:02:28;;;;;;;10.13;9.23;;;18.00;99.90;;;;;;5039505;28;20482;-69
2022/05/24 10:05:21;;;;;;;13.23;10.60;;;18.10;99.90;;;;;;5039501;28;20569;-70
2022/05/24 10:08:15;;;;;;;11.10;10.10;;;18.10;99.90;;;;;;5039184;28;20846;-70
2022/05/24 10:11:23;;;;;;;9.70;8.80;;;18.00;99.90;;;;;;5036857;28;20468;-70
2022/05/24 10:14:30;;;;;;;9.70;8.80;;;18.00;99.90;;;;;;5038947;28;20478;-70
2022/05/24 10:17:28;;;;;;;9.93;9.00;;;17.90;99.90;;;;;;5037648;28;20447;-70
2022/05/24 10:20:29;;;;;;;9.87;9.00;;;17.70;99.90;;;;;;5037984;28;20870;-70
2022/05/24 10:23:32;;;;;;;9.93;8.93;;;17.70;99.90;;;;;;5038130;28;20553;-70
2022/05/24 10:26:41;;;;;;;10.00;9.00;;;17.60;99.90;;;;;;5035481;28;20565;-70
2022/05/24 10:29:43;;;;;;;9.50;8.70;;;17.50;99.90;;;;;;5039228;28;20560;-70
2022/05/24 10:39:26;;;;;;;11.53;10.43;;;17.40;99.90;;;;;;5037806;28;20493;-70
2022/05/24 10:42:31;;;;;;;10.23;9.23;;;17.40;99.90;;;;;;5037356;28;20703;-70
2022/05/24 10:45:49;;;;;;;13.27;11.40;;;17.50;99.90;;;;;;5037686;28;21003;-70
2022/05/24 10:48:44;;;;;;;12.03;10.93;;;17.40;99.90;;;;;;5038985;28;20466;-70
2022/05/24 10:51:37;;;;;;;12.43;11.17;;;17.30;99.90;;;;;;5038842;28;21012;-70
2022/05/24 10:54:34;;;;;;;15.53;12.50;;;17.20;99.90;;;;;;5037318;28;20532;-69
2022/05/24 10:57:30;;;;;;;14.00;12.30;;;17.20;99.90;;;;;;5037583;28;20455;-70
2022/05/24 11:00:22;;;;;;;14.97;13.57;;;17.20;99.90;;;;;;5036300;28;21304;-70
2022/05/24 11:03:13;;;;;;;14.43;12.97;;;17.10;99.90;;;;;;5036786;28;20561;-69
2022/05/24 11:06:13;;;;;;;15.73;14.23;;;17.10;99.90;;;;;;5038067;28;20474;-69
2022/05/24 11:09:05;;;;;;;14.40;13.10;;;16.90;99.90;;;;;;5036662;28;21054;-69
2022/05/24 11:11:58;;;;;;;13.83;12.43;;;16.70;99.90;;;;;;5037552;28;20630;-70
2022/05/24 11:14:54;;;;;;;11.70;10.70;;;16.60;99.90;;;;;;5037066;28;20501;-70
2022/05/24 11:17:44;;;;;;;10.97;9.77;;;16.70;99.90;;;;;;5038083;28;21289;-69
2022/05/24 11:20:37;;;;;;;9.07;8.17;;;16.70;99.90;;;;;;5041529;28;20550;-69
2022/05/24 11:23:31;;;;;;;8.53;7.57;;;16.50;99.90;;;;;;5042032;28;21512;-69
2022/05/24 11:26:24;;;;;;;8.90;8.20;;;16.30;99.90;;;;;;5039468;28;20466;-70
2022/05/24 11:29:26;;;;;;;8.30;7.40;;;16.30;99.90;;;;;;5042571;28;20463;-70
2022/05/24 11:32:32;;;;;;;8.70;7.80;;;16.30;99.90;;;;;;5041233;28;20608;-70
2022/05/24 11:35:27;;;;;;;7.20;6.60;;;16.30;99.90;;;;;;5041484;28;20509;-70
2022/05/24 11:38:20;;;;;;;8.50;7.80;;;16.20;99.90;;;;;;5039957;28;20494;-70
2022/05/24 11:41:20;;;;;;;8.23;7.53;;;16.20;99.90;;;;;;5039718;28;20546;-70
2022/05/24 11:44:29;;;;;;;8.27;7.57;;;16.20;99.90;;;;;;5039385;28;21006;-70
2022/05/24 11:47:58;;;;;;;11.07;7.70;;;16.20;99.90;;;;;;5041485;28;20470;-70
2022/05/24 11:50:50;;;;;;;9.33;8.43;;;16.20;99.90;;;;;;5041020;28;20923;-70
2022/05/24 11:53:44;;;;;;;7.73;7.03;;;16.20;99.90;;;;;;5040501;28;20562;-70
2022/05/24 11:56:36;;;;;;;8.70;7.90;;;16.20;99.90;;;;;;5038195;28;20447;-70
2022/05/24 11:59:51;;;;;;;8.47;7.70;;;16.20;99.90;;;;;;5041216;28;20467;-69
2022/05/24 12:09:22;;;;;;;9.70;8.80;;;16.40;99.90;;;;;;5042275;28;21070;-70
2022/05/24 12:12:19;;;;;;;9.03;8.30;;;16.50;99.90;;;;;;5040520;28;20462;-70
2022/05/24 12:15:17;;;;;;;10.07;9.27;;;16.60;99.90;;;;;;5038267;28;20644;-70
2022/05/24 12:18:18;;;;;;;9.63;8.60;;;16.70;99.90;;;;;;5040880;28;21021;-70
2022/05/24 12:21:08;;;;;;;10.37;9.40;;;16.80;99.90;;;;;;5046915;28;20530;-70
2022/05/24 12:24:40;;;;;;;9.30;8.50;;;17.00;99.90;;;;;;5049189;28;20530;-70
2022/05/24 12:27:48;;;;;;;9.47;8.57;;;17.10;99.90;;;;;;5046519;28;20573;-70
2022/05/24 12:30:46;;;;;;;10.90;8.70;;;17.20;99.90;;;;;;5041195;28;20511;-70
2022/05/24 12:33:39;;;;;;;8.83;7.97;;;17.30;99.90;;;;;;5040918;28;21014;-70
2022/05/24 12:36:34;;;;;;;9.10;8.40;;;17.40;99.90;;;;;;5040097;28;20444;-70
2022/05/24 12:40:03;;;;;;;10.63;8.37;;;17.50;99.90;;;;;;5038531;28;21176;-70
2022/05/24 12:42:54;;;;;;;8.50;7.80;;;17.50;99.90;;;;;;5038183;28;20471;-70
2022/05/24 12:45:48;;;;;;;9.00;8.20;;;17.50;99.90;;;;;;5040935;28;20455;-70
2022/05/24 12:48:42;;;;;;;8.20;7.50;;;17.40;99.90;;;;;;5037059;28;20486;-70
2022/05/24 12:51:33;;;;;;;7.03;6.40;;;17.50;99.90;;;;;;5038267;28;20528;-69
2022/05/24 12:54:31;;;;;;;7.67;5.80;;;17.60;99.90;;;;;;5039366;28;20590;-70
2022/05/24 12:57:22;;;;;;;7.67;6.97;;;17.80;99.90;;;;;;5038956;28;20844;-70
2022/05/24 13:00:19;;;;;;;6.50;5.90;;;18.00;99.90;;;;;;5040263;28;20534;-70
2022/05/24 13:03:22;;;;;;;6.83;6.27;;;18.20;99.90;;;;;;5039272;28;21037;-70
2022/05/24 13:06:22;;;;;;;7.33;6.73;;;18.30;99.90;;;;;;5038297;28;20457;-70
2022/05/24 13:09:27;;;;;;;7.23;6.10;;;18.50;99.90;;;;;;5039634;28;20471;-70
2022/05/24 13:12:18;;;;;;;6.80;6.20;;;18.70;99.90;;;;;;5038972;28;20994;-70
2022/05/24 13:15:15;;;;;;;6.60;5.93;;;18.80;99.90;;;;;;5040723;28;20512;-70
2022/05/24 13:18:12;;;;;;;6.50;5.90;;;18.80;99.90;;;;;;5038672;28;20502;-70
2022/05/24 13:21:06;;;;;;;6.40;5.50;;;18.70;99.90;;;;;;5038987;28;20577;-70
2022/05/24 13:24:09;;;;;;;6.10;5.40;;;18.70;99.90;;;;;;5037860;28;20568;-70
2022/05/24 13:26:59;;;;;;;6.00;5.50;;;18.60;99.90;;;;;;5038150;28;20543;-70
2022/05/24 13:36:29;;;;;;;5.50;5.00;;;18.70;99.90;;;;;;5039958;28;20956;-70
2022/05/24 13:39:23;;;;;;;5.30;4.90;;;18.90;99.90;;;;;;5037544;28;20503;-70
2022/05/24 13:42:24;;;;;;;5.07;4.67;;;18.90;99.90;;;;;;5037910;28;20470;-70
2022/05/24 13:45:19;;;;;;;4.80;4.40;;;19.00;99.90;;;;;;5037897;28;20587;-70
2022/05/24 13:48:26;;;;;;;5.00;4.60;;;19.00;99.90;;;;;;5039173;28;20719;-70
2022/05/24 13:51:25;;;;;;;4.93;4.60;;;19.20;99.90;;;;;;5038833;28;20570;-69
2022/05/24 13:54:37;;;;;;;5.57;4.83;;;19.40;99.90;;;;;;5036107;28;20536;-70
2022/05/24 13:57:29;;;;;;;5.03;4.63;;;19.50;99.90;;;;;;5037890;28;20539;-70
2022/05/24 14:00:26;;;;;;;5.00;4.70;;;19.50;99.90;;;;;;5039367;28;20640;-70
2022/05/24 14:03:21;;;;;;;5.33;4.83;;;19.70;99.90;;;;;;5037593;28;20556;-70
2022/05/24 14:06:13;;;;;;;4.83;4.43;;;19.90;99.90;;;;;;5040735;28;20684;-70
2022/05/24 14:09:07;;;;;;;5.23;4.83;;;20.10;99.90;;;;;;5038464;28;20857;-70
2022/05/24 14:11:58;;;;;;;6.53;5.83;;;20.30;99.90;;;;;;5035611;28;21200;-70
2022/05/24 14:14:52;;;;;;;5.60;5.10;;;20.40;99.90;;;;;;5038975;28;20457;-69
2022/05/24 14:17:40;;;;;;;5.00;4.70;;;20.60;99.90;;;;;;5038865;28;21020;-71
2022/05/24 14:20:30;;;;;;;4.20;3.90;;;20.60;99.90;;;;;;5035911;28;20621;-70
2022/05/24 14:23:23;;;;;;;4.70;4.30;;;20.70;99.90;;;;;;5038208;28;20904;-70
2022/05/24 14:26:11;;;;;;;4.70;4.30;;;20.70;99.90;;;;;;5038609;28;21017;-70
2022/05/24 14:29:06;;;;;;;4.80;4.40;;;21.00;99.90;;;;;;5038185;28;20569;-70
2022/05/24 14:31:57;;;;;;;4.20;3.87;;;21.10;99.90;;;;;;5038813;28;20471;-70
2022/05/24 14:34:49;;;;;;;6.37;4.67;;;21.20;99.90;;;;;;5034610;28;20443;-70
2022/05/24 14:37:39;;;;;;;4.33;4.03;;;20.90;99.90;;;;;;5037387;28;20558;-70
2022/05/24 14:40:38;;;;;;;4.80;4.30;;;20.80;99.90;;;;;;5037563;28;20541;-70
2022/05/24 14:43:35;;;;;;;5.60;4.80;;;20.70;99.90;;;;;;5037276;28;21322;-70
2022/05/24 14:46:23;;;;;;;4.73;4.43;;;20.40;99.90;;;;;;5038266;28;20580;-70
2022/05/24 14:49:14;;;;;;;5.20;4.80;;;20.30;99.90;;;;;;5038820;28;20482;-70
2022/05/24 14:52:13;;;;;;;5.40;5.00;;;20.00;99.90;;;;;;5036652;28;20471;-69
2022/05/24 14:55:08;;;;;;;5.83;5.30;;;19.70;99.90;;;;;;5039038;28;20535;-69
2022/05/24 14:57:58;;;;;;;6.23;5.80;;;19.30;99.90;;;;;;5039661;28;20470;-70
2022/05/24 15:00:49;;;;;;;6.33;5.87;;;19.00;99.90;;;;;;5038285;28;20501;-70
2022/05/24 15:03:37;;;;;;;7.50;6.90;;;18.70;99.90;;;;;;5038633;28;20478;-70
2022/05/24 15:06:27;;;;;;;6.50;5.90;;;18.50;99.90;;;;;;5038573;28;20483;-70
2022/05/24 15:15:34;;;;;;;6.73;6.13;;;18.00;99.90;;;;;;5039666;28;20525;-70
2022/05/24 15:18:23;;;;;;;7.37;6.67;;;17.80;99.90;;;;;;5038821;28;20978;-70
2022/05/24 15:21:16;;;;;;;6.93;6.30;;;17.90;99.90;;;;;;5039412;28;20451;-70
2022/05/24 15:24:11;;;;;;;6.63;6.13;;;18.20;99.90;;;;;;5038585;28;20489;-70
2022/05/24 15:27:08;;;;;;;7.30;6.70;;;18.40;99.90;;;;;;5039981;28;20449;-69
2022/05/24 15:29:57;;;;;;;5.53;5.13;;;18.50;99.90;;;;;;5038669;28;20478;-70
2022/05/24 15:32:46;;;;;;;6.23;5.70;;;18.80;99.90;;;;;;5040676;28;20478;-69
2022/05/24 15:35:35;;;;;;;6.67;6.07;;;18.80;99.90;;;;;;5038012;28;20538;-69
2022/05/24 15:38:32;;;;;;;6.40;5.90;;;19.00;99.90;;;;;;5037276;28;20888;-70
2022/05/24 15:41:21;;;;;;;6.43;5.93;;;19.10;99.90;;;;;;5037645;28;20465;-69
2022/05/24 15:44:10;;;;;;;6.77;5.50;;;19.10;99.90;;;;;;5038056;28;20557;-70
2022/05/24 15:46:58;;;;;;;6.10;5.47;;;19.10;99.90;;;;;;5039070;28;20486;-70
2022/05/24 15:49:46;;;;;;;6.73;6.23;;;19.20;99.90;;;;;;5039539;28;20482;-70
2022/05/24 15:52:35;;;;;;;6.87;6.17;;;19.30;99.90;;;;;;5037657;28;20467;-70
2022/05/24 15:55:27;;;;;;;7.17;6.47;;;19.20;99.90;;;;;;5037363;28;20483;-70